sensor_id;sensor_type;location;lat;lon;timestamp;pressure;altitude;pressure_sealevel;temperature;humidity
163;BME280;3946;48.958;8.284;2023-12-07T00:00:43;100931.03;;;3.38;100.00
163;BME280;3946;48.958;8.284;2023-12-07T00:03:30;100933.56;;;3.40;100.00
163;BME280;3946;48.958;8.284;2023-12-07T00:06:15;100924.06;;;3.43;100.00
163;BME280;3946;48.958;8.284;2023-12-07T00:09:01;100926.66;;;3.42;100.00
163;BME280;3946;48.958;8.284;2023-12-07T00:11:46;100932.81;;;3.36;100.00
163;BME280;3946;48.958;8.284;2023-12-07T00:14:31;100936.97;;;3.40;100.00
163;BME280;3946;48.958;8.284;2023-12-07T00:17:16;100935.31;;;3.38;100.00
163;BME280;3946;48.958;8.284;2023-12-07T00:20:04;100940.31;;;3.42;100.00
163;BME280;3946;48.958;8.284;2023-12-07T00:22:49;100937.81;;;3.41;100.00
163;BME280;3946;48.958;8.284;2023-12-07T00:25:34;100936.81;;;3.46;100.00
163;BME280;3946;48.958;8.284;2023-12-07T00:28:20;100931.91;;;3.37;100.00
163;BME280;3946;48.958;8.284;2023-12-07T00:31:05;100927.59;;;3.39;100.00
163;BME280;3946;48.958;8.284;2023-12-07T00:33:52;100934.34;;;3.42;100.00
163;BME280;3946;48.958;8.284;2023-12-07T00:36:38;100934.16;;;3.49;100.00
163;BME280;3946;48.958;8.284;2023-12-07T00:39:24;100940.03;;;3.55;100.00
163;BME280;3946;48.958;8.284;2023-12-07T00:42:10;100938.59;;;3.43;100.00
163;BME280;3946;48.958;8.284;2023-12-07T00:44:55;100940.81;;;3.23;100.00
163;BME280;3946;48.958;8.284;2023-12-07T00:47:40;100939.81;;;3.28;100.00
163;BME280;3946;48.958;8.284;2023-12-07T00:50:25;100944.88;;;3.31;100.00
163;BME280;3946;48.958;8.284;2023-12-07T00:53:12;100954.25;;;3.31;100.00
163;BME280;3946;48.958;8.284;2023-12-07T00:55:57;100953.31;;;3.35;100.00
163;BME280;3946;48.958;8.284;2023-12-07T00:58:42;100943.44;;;3.20;100.00
163;BME280;3946;48.958;8.284;2023-12-07T01:01:28;100950.72;;;3.36;100.00
163;BME280;3946;48.958;8.284;2023-12-07T01:04:16;100947.50;;;3.28;100.00
163;BME280;3946;48.958;8.284;2023-12-07T01:07:02;100950.97;;;3.26;100.00
163;BME280;3946;48.958;8.284;2023-12-07T01:09:49;100957.28;;;3.11;100.00
163;BME280;3946;48.958;8.284;2023-12-07T01:12:35;100954.59;;;3.17;100.00
163;BME280;3946;48.958;8.284;2023-12-07T01:15:20;100963.19;;;3.14;100.00
163;BME280;3946;48.958;8.284;2023-12-07T01:18:06;100964.69;;;3.25;100.00
163;BME280;3946;48.958;8.284;2023-12-07T01:20:51;100981.06;;;3.16;100.00
163;BME280;3946;48.958;8.284;2023-12-07T01:23:36;100976.09;;;3.10;100.00
163;BME280;3946;48.958;8.284;2023-12-07T01:26:23;100983.63;;;3.16;100.00
163;BME280;3946;48.958;8.284;2023-12-07T01:29:08;100983.63;;;3.16;100.00
163;BME280;3946;48.958;8.284;2023-12-07T01:31:54;100974.13;;;3.21;100.00
163;BME280;3946;48.958;8.284;2023-12-07T01:34:39;100982.00;;;3.12;100.00
163;BME280;3946;48.958;8.284;2023-12-07T01:37:24;100975.03;;;3.19;100.00
163;BME280;3946;48.958;8.284;2023-12-07T01:40:12;100982.38;;;2.97;100.00
163;BME280;3946;48.958;8.284;2023-12-07T01:43:00;100980.84;;;2.90;100.00
163;BME280;3946;48.958;8.284;2023-12-07T01:45:45;100985.28;;;2.80;100.00
163;BME280;3946;48.958;8.284;2023-12-07T01:48:30;100992.56;;;2.60;100.00
163;BME280;3946;48.958;8.284;2023-12-07T01:51:17;100984.44;;;2.41;100.00
163;BME280;3946;48.958;8.284;2023-12-07T01:54:04;100994.94;;;2.26;100.00
163;BME280;3946;48.958;8.284;2023-12-07T01:56:50;100987.56;;;2.10;100.00
163;BME280;3946;48.958;8.284;2023-12-07T01:59:37;100987.47;;;2.15;100.00
163;BME280;3946;48.958;8.284;2023-12-07T02:02:23;100982.69;;;1.97;100.00
163;BME280;3946;48.958;8.284;2023-12-07T02:05:08;100982.06;;;1.86;100.00
163;BME280;3946;48.958;8.284;2023-12-07T02:07:53;100980.63;;;1.71;100.00
163;BME280;3946;48.958;8.284;2023-12-07T02:10:39;100982.31;;;1.72;100.00
163;BME280;3946;48.958;8.284;2023-12-07T02:13:24;100985.97;;;1.56;100.00
163;BME280;3946;48.958;8.284;2023-12-07T02:16:17;100987.41;;;1.72;100.00
163;BME280;3946;48.958;8.284;2023-12-07T02:19:15;100981.81;;;1.50;100.00
163;BME280;3946;48.958;8.284;2023-12-07T02:22:09;100987.09;;;1.39;100.00
163;BME280;3946;48.958;8.284;2023-12-07T02:25:06;100977.59;;;1.48;100.00
163;BME280;3946;48.958;8.284;2023-12-07T02:27:56;100984.41;;;1.47;100.00
163;BME280;3946;48.958;8.284;2023-12-07T02:30:41;100983.13;;;1.20;100.00
163;BME280;3946;48.958;8.284;2023-12-07T02:33:26;100989.31;;;1.05;100.00
163;BME280;3946;48.958;8.284;2023-12-07T02:36:14;100983.38;;;1.03;100.00
163;BME280;3946;48.958;8.284;2023-12-07T02:39:00;100999.59;;;0.99;100.00
163;BME280;3946;48.958;8.284;2023-12-07T02:41:48;101007.22;;;1.02;100.00
163;BME280;3946;48.958;8.284;2023-12-07T02:44:36;101012.94;;;1.18;100.00
163;BME280;3946;48.958;8.284;2023-12-07T02:47:21;101013.72;;;1.23;100.00
163;BME280;3946;48.958;8.284;2023-12-07T02:50:07;100990.13;;;1.09;100.00
163;BME280;3946;48.958;8.284;2023-12-07T02:52:53;101014.94;;;0.98;100.00
163;BME280;3946;48.958;8.284;2023-12-07T02:55:41;101018.50;;;0.85;100.00
163;BME280;3946;48.958;8.284;2023-12-07T02:58:26;101006.00;;;0.66;100.00
163;BME280;3946;48.958;8.284;2023-12-07T03:01:13;101007.78;;;0.60;100.00
163;BME280;3946;48.958;8.284;2023-12-07T03:03:58;101012.97;;;0.52;100.00
163;BME280;3946;48.958;8.284;2023-12-07T03:06:43;101017.34;;;0.43;100.00
163;BME280;3946;48.958;8.284;2023-12-07T03:09:29;101011.41;;;0.41;100.00
163;BME280;3946;48.958;8.284;2023-12-07T03:12:14;101022.50;;;0.37;100.00
163;BME280;3946;48.958;8.284;2023-12-07T03:14:59;101019.25;;;0.25;100.00
163;BME280;3946;48.958;8.284;2023-12-07T03:17:46;101024.28;;;0.30;100.00
163;BME280;3946;48.958;8.284;2023-12-07T03:20:31;101023.63;;;0.13;100.00
163;BME280;3946;48.958;8.284;2023-12-07T03:23:16;101025.38;;;0.05;100.00
163;BME280;3946;48.958;8.284;2023-12-07T03:26:02;101033.91;;;0.02;100.00
163;BME280;3946;48.958;8.284;2023-12-07T03:28:47;101028.03;;;-0.05;100.00
163;BME280;3946;48.958;8.284;2023-12-07T03:31:33;101031.44;;;-0.07;100.00
163;BME280;3946;48.958;8.284;2023-12-07T03:34:20;101032.34;;;-0.14;100.00
163;BME280;3946;48.958;8.284;2023-12-07T03:37:05;101034.94;;;-0.17;100.00
163;BME280;3946;48.958;8.284;2023-12-07T03:39:50;101045.19;;;-0.26;100.00
163;BME280;3946;48.958;8.284;2023-12-07T03:42:36;101041.03;;;-0.33;100.00
163;BME280;3946;48.958;8.284;2023-12-07T03:45:21;101039.38;;;-0.42;100.00
163;BME280;3946;48.958;8.284;2023-12-07T03:48:06;101038.63;;;-0.50;100.00
163;BME280;3946;48.958;8.284;2023-12-07T03:50:53;101043.75;;;-0.58;100.00
163;BME280;3946;48.958;8.284;2023-12-07T03:53:38;101050.44;;;-0.46;100.00
163;BME280;3946;48.958;8.284;2023-12-07T03:56:24;101046.19;;;-0.44;100.00
163;BME280;3946;48.958;8.284;2023-12-07T03:59:09;101051.34;;;-0.53;100.00
163;BME280;3946;48.958;8.284;2023-12-07T04:01:55;101053.06;;;-0.58;100.00
163;BME280;3946;48.958;8.284;2023-12-07T04:04:40;101058.16;;;-0.55;100.00
163;BME280;3946;48.958;8.284;2023-12-07T04:07:27;101042.06;;;-0.60;100.00
163;BME280;3946;48.958;8.284;2023-12-07T04:10:12;101056.38;;;-0.47;100.00
163;BME280;3946;48.958;8.284;2023-12-07T04:12:58;101050.50;;;-0.55;100.00
163;BME280;3946;48.958;8.284;2023-12-07T04:15:44;101059.88;;;-0.60;100.00
163;BME280;3946;48.958;8.284;2023-12-07T04:18:29;101070.13;;;-0.69;100.00
163;BME280;3946;48.958;8.284;2023-12-07T04:21:14;101065.91;;;-0.75;100.00
163;BME280;3946;48.958;8.284;2023-12-07T04:24:01;101065.91;;;-0.78;100.00
163;BME280;3946;48.958;8.284;2023-12-07T04:26:46;101066.75;;;-0.73;100.00
163;BME280;3946;48.958;8.284;2023-12-07T04:29:33;101067.56;;;-0.69;100.00
163;BME280;3946;48.958;8.284;2023-12-07T04:32:18;101070.13;;;-0.68;100.00
163;BME280;3946;48.958;8.284;2023-12-07T04:35:04;101063.34;;;-0.74;100.00
163;BME280;3946;48.958;8.284;2023-12-07T04:37:50;101067.66;;;-0.85;100.00
163;BME280;3946;48.958;8.284;2023-12-07T04:40:37;101077.84;;;-0.88;100.00
163;BME280;3946;48.958;8.284;2023-12-07T04:43:22;101080.41;;;-0.89;100.00
163;BME280;3946;48.958;8.284;2023-12-07T04:46:08;101078.72;;;-0.93;100.00
163;BME280;3946;48.958;8.284;2023-12-07T04:48:53;101080.41;;;-0.94;100.00
163;BME280;3946;48.958;8.284;2023-12-07T04:51:38;101080.41;;;-0.94;100.00
163;BME280;3946;48.958;8.284;2023-12-07T04:54:26;101082.94;;;-0.83;100.00
163;BME280;3946;48.958;8.284;2023-12-07T04:57:12;101079.56;;;-0.88;100.00
163;BME280;3946;48.958;8.284;2023-12-07T04:59:58;101089.75;;;-0.96;100.00
163;BME280;3946;48.958;8.284;2023-12-07T05:02:43;101087.25;;;-1.02;100.00
163;BME280;3946;48.958;8.284;2023-12-07T05:05:28;101083.03;;;-1.06;100.00
163;BME280;3946;48.958;8.284;2023-12-07T05:08:14;101090.66;;;-1.04;100.00
163;BME280;3946;48.958;8.284;2023-12-07T05:10:59;101079.63;;;-1.08;100.00
163;BME280;3946;48.958;8.284;2023-12-07T05:13:46;101077.16;;;-1.16;100.00
163;BME280;3946;48.958;8.284;2023-12-07T05:16:32;101074.59;;;-1.16;100.00
163;BME280;3946;48.958;8.284;2023-12-07T05:19:18;101082.25;;;-1.22;100.00
163;BME280;3946;48.958;8.284;2023-12-07T05:22:03;101087.34;;;-1.26;100.00
163;BME280;3946;48.958;8.284;2023-12-07T05:24:48;101072.97;;;-1.35;100.00
163;BME280;3946;48.958;8.284;2023-12-07T05:27:34;101076.38;;;-1.31;100.00
163;BME280;3946;48.958;8.284;2023-12-07T05:30:20;101071.25;;;-1.25;100.00
163;BME280;3946;48.958;8.284;2023-12-07T05:33:05;101077.22;;;-1.31;100.00
163;BME280;3946;48.958;8.284;2023-12-07T05:35:52;101078.91;;;-1.37;100.00
163;BME280;3946;48.958;8.284;2023-12-07T05:38:37;101083.94;;;-1.22;100.00
163;BME280;3946;48.958;8.284;2023-12-07T05:41:23;101076.38;;;-1.36;100.00
163;BME280;3946;48.958;8.284;2023-12-07T05:44:09;101084.00;;;-1.45;100.00
163;BME280;3946;48.958;8.284;2023-12-07T05:46:56;101088.28;;;-1.49;100.00
163;BME280;3946;48.958;8.284;2023-12-07T05:49:41;101095.06;;;-1.51;100.00
163;BME280;3946;48.958;8.284;2023-12-07T05:52:26;101078.97;;;-1.60;100.00
163;BME280;3946;48.958;8.284;2023-12-07T05:55:12;101090.81;;;-1.53;100.00
163;BME280;3946;48.958;8.284;2023-12-07T05:57:57;101088.28;;;-1.56;100.00
163;BME280;3946;48.958;8.284;2023-12-07T06:00:42;101097.59;;;-1.60;100.00
163;BME280;3946;48.958;8.284;2023-12-07T06:03:32;101091.66;;;-1.62;100.00
163;BME280;3946;48.958;8.284;2023-12-07T06:06:17;101093.34;;;-1.58;100.00
163;BME280;3946;48.958;8.284;2023-12-07T06:09:05;101087.47;;;-1.69;100.00
163;BME280;3946;48.958;8.284;2023-12-07T06:11:50;101103.56;;;-1.67;100.00
163;BME280;3946;48.958;8.284;2023-12-07T06:14:36;101099.31;;;-1.66;100.00
163;BME280;3946;48.958;8.284;2023-12-07T06:17:21;101095.94;;;-1.67;100.00
163;BME280;3946;48.958;8.284;2023-12-07T06:20:09;101100.16;;;-1.67;100.00
163;BME280;3946;48.958;8.284;2023-12-07T06:22:55;101098.47;;;-1.73;100.00
163;BME280;3946;48.958;8.284;2023-12-07T06:25:41;101098.47;;;-1.74;100.00
163;BME280;3946;48.958;8.284;2023-12-07T06:28:27;101097.63;;;-1.78;100.00
163;BME280;3946;48.958;8.284;2023-12-07T06:31:12;101106.97;;;-1.82;100.00
163;BME280;3946;48.958;8.284;2023-12-07T06:33:59;101100.16;;;-1.75;100.00
163;BME280;3946;48.958;8.284;2023-12-07T06:36:45;101107.75;;;-1.54;100.00
163;BME280;3946;48.958;8.284;2023-12-07T06:39:31;101095.09;;;-1.70;100.00
163;BME280;3946;48.958;8.284;2023-12-07T06:42:17;101109.44;;;-1.62;100.00
163;BME280;3946;48.958;8.284;2023-12-07T06:45:02;101109.47;;;-1.66;100.00
163;BME280;3946;48.958;8.284;2023-12-07T06:47:48;101106.94;;;-1.66;100.00
163;BME280;3946;48.958;8.284;2023-12-07T06:50:33;101109.47;;;-1.72;100.00
163;BME280;3946;48.958;8.284;2023-12-07T06:53:20;101101.03;;;-1.79;100.00
163;BME280;3946;48.958;8.284;2023-12-07T06:56:06;101093.38;;;-1.74;100.00
163;BME280;3946;48.958;8.284;2023-12-07T06:58:51;101095.09;;;-1.78;100.00
163;BME280;3946;48.958;8.284;2023-12-07T07:01:36;101085.81;;;-1.84;100.00
163;BME280;3946;48.958;8.284;2023-12-07T07:04:25;101080.72;;;-1.79;100.00
163;BME280;3946;48.958;8.284;2023-12-07T07:07:10;101085.69;;;-1.43;100.00
163;BME280;3946;48.958;8.284;2023-12-07T07:09:57;101085.78;;;-1.74;100.00
163;BME280;3946;48.958;8.284;2023-12-07T07:12:42;101083.25;;;-1.82;100.00
163;BME280;3946;48.958;8.284;2023-12-07T07:15:28;101092.56;;;-1.80;100.00
163;BME280;3946;48.958;8.284;2023-12-07T07:18:13;101097.66;;;-1.81;100.00
163;BME280;3946;48.958;8.284;2023-12-07T07:20:58;101088.22;;;-1.33;100.00
163;BME280;3946;48.958;8.284;2023-12-07T07:23:44;101107.59;;;-1.03;100.00
163;BME280;3946;48.958;8.284;2023-12-07T07:26:30;101104.38;;;-1.47;100.00
163;BME280;3946;48.958;8.284;2023-12-07T07:29:15;101110.22;;;-1.26;100.00
163;BME280;3946;48.958;8.284;2023-12-07T07:32:01;101110.22;;;-1.29;100.00
163;BME280;3946;48.958;8.284;2023-12-07T07:34:46;101121.22;;;-1.23;100.00
163;BME280;3946;48.958;8.284;2023-12-07T07:37:32;101120.38;;;-1.23;100.00
163;BME280;3946;48.958;8.284;2023-12-07T07:40:17;101120.38;;;-1.22;100.00
163;BME280;3946;48.958;8.284;2023-12-07T07:43:04;101122.84;;;-1.03;100.00
163;BME280;3946;48.958;8.284;2023-12-07T07:45:49;101136.41;;;-1.03;100.00
163;BME280;3946;48.958;8.284;2023-12-07T07:48:34;101139.84;;;-1.16;100.00
163;BME280;3946;48.958;8.284;2023-12-07T07:51:21;101141.50;;;-1.12;100.00
163;BME280;3946;48.958;8.284;2023-12-07T07:54:06;101143.13;;;-0.88;100.00
163;BME280;3946;48.958;8.284;2023-12-07T07:56:52;101135.28;;;-0.47;100.00
163;BME280;3946;48.958;8.284;2023-12-07T07:59:39;101126.78;;;-0.45;100.00
163;BME280;3946;48.958;8.284;2023-12-07T08:02:24;101110.50;;;-0.21;100.00
163;BME280;3946;48.958;8.284;2023-12-07T08:05:09;101109.66;;;-0.23;100.00
163;BME280;3946;48.958;8.284;2023-12-07T08:07:55;101099.34;;;-0.05;100.00
163;BME280;3946;48.958;8.284;2023-12-07T08:11:03;101100.16;;;-0.01;100.00
163;BME280;3946;48.958;8.284;2023-12-07T08:14:08;101106.06;;;0.04;100.00
163;BME280;3946;48.958;8.284;2023-12-07T08:16:55;101106.75;;;0.20;100.00
163;BME280;3946;48.958;8.284;2023-12-07T08:19:41;101089.88;;;0.10;100.00
163;BME280;3946;48.958;8.284;2023-12-07T08:22:26;101083.84;;;0.18;100.00
163;BME280;3946;48.958;8.284;2023-12-07T08:25:12;101080.34;;;0.30;100.00
163;BME280;3946;48.958;8.284;2023-12-07T08:27:56;101076.16;;;0.23;100.00
163;BME280;3946;48.958;8.284;2023-12-07T08:30:42;101095.41;;;0.50;100.00
163;BME280;3946;48.958;8.284;2023-12-07T08:33:28;101080.16;;;0.48;100.00
163;BME280;3946;48.958;8.284;2023-12-07T08:36:14;101081.69;;;0.64;100.00
163;BME280;3946;48.958;8.284;2023-12-07T08:39:00;101068.03;;;0.65;100.00
163;BME280;3946;48.958;8.284;2023-12-07T08:41:46;101060.47;;;0.62;100.00
163;BME280;3946;48.958;8.284;2023-12-07T08:44:31;101064.53;;;0.76;100.00
163;BME280;3946;48.958;8.284;2023-12-07T08:47:16;101053.72;;;0.57;100.00
163;BME280;3946;48.958;8.284;2023-12-07T08:50:03;101048.41;;;0.75;100.00
163;BME280;3946;48.958;8.284;2023-12-07T08:52:49;101043.34;;;0.72;100.00
163;BME280;3946;48.958;8.284;2023-12-07T08:55:34;101043.28;;;0.77;100.00
163;BME280;3946;48.958;8.284;2023-12-07T08:58:22;101040.78;;;0.72;100.00
163;BME280;3946;48.958;8.284;2023-12-07T09:01:07;101036.03;;;1.11;100.00
163;BME280;3946;48.958;8.284;2023-12-07T09:03:53;101036.06;;;1.08;100.00
163;BME280;3946;48.958;8.284;2023-12-07T09:06:39;101030.94;;;1.09;100.00
163;BME280;3946;48.958;8.284;2023-12-07T09:09:25;101027.69;;;0.98;100.00
163;BME280;3946;48.958;8.284;2023-12-07T09:12:10;101027.69;;;0.98;100.00
163;BME280;3946;48.958;8.284;2023-12-07T09:14:55;101014.69;;;1.15;100.00
163;BME280;3946;48.958;8.284;2023-12-07T09:17:41;101005.25;;;1.20;100.00
163;BME280;3946;48.958;8.284;2023-12-07T09:20:26;101008.38;;;1.38;100.00
163;BME280;3946;48.958;8.284;2023-12-07T09:23:13;101009.19;;;1.42;100.00
163;BME280;3946;48.958;8.284;2023-12-07T09:25:58;100999.88;;;1.39;100.00
163;BME280;3946;48.958;8.284;2023-12-07T09:28:44;101003.91;;;1.53;100.00
163;BME280;3946;48.958;8.284;2023-12-07T09:31:29;101007.38;;;1.49;100.00
163;BME280;3946;48.958;8.284;2023-12-07T09:34:15;101002.16;;;1.56;100.00
163;BME280;3946;48.958;8.284;2023-12-07T09:37:05;100993.41;;;1.69;100.00
163;BME280;3946;48.958;8.284;2023-12-07T09:39:52;101006.38;;;1.59;100.00
163;BME280;3946;48.958;8.284;2023-12-07T09:42:38;100996.69;;;1.78;100.00
163;BME280;3946;48.958;8.284;2023-12-07T09:45:23;101000.66;;;1.94;100.00
163;BME280;3946;48.958;8.284;2023-12-07T09:48:09;100994.56;;;2.01;100.00
163;BME280;3946;48.958;8.284;2023-12-07T09:50:55;100991.16;;;2.00;100.00
163;BME280;3946;48.958;8.284;2023-12-07T09:53:42;100990.91;;;2.13;100.00
163;BME280;3946;48.958;8.284;2023-12-07T09:56:30;100991.47;;;2.28;100.00
163;BME280;3946;48.958;8.284;2023-12-07T09:59:15;100984.34;;;2.44;100.00
163;BME280;3946;48.958;8.284;2023-12-07T10:02:00;100976.28;;;2.62;100.00
163;BME280;3946;48.958;8.284;2023-12-07T10:04:46;100962.59;;;2.65;100.00
163;BME280;3946;48.958;8.284;2023-12-07T10:07:33;100962.06;;;2.89;100.00
163;BME280;3946;48.958;8.284;2023-12-07T10:10:20;100968.78;;;2.93;100.00
163;BME280;3946;48.958;8.284;2023-12-07T10:13:07;100960.78;;;3.08;100.00
163;BME280;3946;48.958;8.284;2023-12-07T10:16:05;100954.25;;;2.95;100.00
163;BME280;3946;48.958;8.284;2023-12-07T10:18:50;100949.94;;;2.97;100.00
163;BME280;3946;48.958;8.284;2023-12-07T10:21:36;100953.34;;;2.98;100.00
163;BME280;3946;48.958;8.284;2023-12-07T10:24:22;100959.34;;;2.97;100.00
163;BME280;3946;48.958;8.284;2023-12-07T10:27:08;100947.91;;;2.74;100.00
163;BME280;3946;48.958;8.284;2023-12-07T10:29:58;100937.59;;;2.77;100.00
163;BME280;3946;48.958;8.284;2023-12-07T10:32:44;100941.31;;;3.01;100.00
163;BME280;3946;48.958;8.284;2023-12-07T10:35:29;100937.03;;;3.02;100.00
163;BME280;3946;48.958;8.284;2023-12-07T10:38:14;100921.59;;;3.06;100.00
163;BME280;3946;48.958;8.284;2023-12-07T10:41:05;100922.25;;;3.13;100.00
163;BME280;3946;48.958;8.284;2023-12-07T10:43:52;100921.44;;;3.11;100.00
163;BME280;3946;48.958;8.284;2023-12-07T10:46:42;100909.66;;;3.41;100.00
163;BME280;3946;48.958;8.284;2023-12-07T10:49:27;100902.06;;;3.36;100.00
163;BME280;3946;48.958;8.284;2023-12-07T10:52:16;100897.75;;;3.38;100.00
163;BME280;3946;48.958;8.284;2023-12-07T10:55:08;100876.34;;;3.07;100.00
163;BME280;3946;48.958;8.284;2023-12-07T10:57:55;100880.66;;;3.39;100.00
163;BME280;3946;48.958;8.284;2023-12-07T11:00:42;100872.84;;;3.43;100.00
163;BME280;3946;48.958;8.284;2023-12-07T11:03:31;100861.16;;;3.33;100.00
163;BME280;3946;48.958;8.284;2023-12-07T11:06:18;100848.88;;;3.46;100.00
163;BME280;3946;48.958;8.284;2023-12-07T11:09:07;100849.53;;;3.54;100.00
163;BME280;3946;48.958;8.284;2023-12-07T11:11:57;100844.97;;;3.64;100.00
163;BME280;3946;48.958;8.284;2023-12-07T11:14:44;100842.78;;;3.81;100.00
163;BME280;3946;48.958;8.284;2023-12-07T11:17:47;100817.13;;;3.82;100.00
163;BME280;3946;48.958;8.284;2023-12-07T11:20:40;100815.91;;;4.23;100.00
163;BME280;3946;48.958;8.284;2023-12-07T11:23:28;100816.28;;;4.39;100.00
163;BME280;3946;48.958;8.284;2023-12-07T11:26:13;100815.22;;;4.18;100.00
163;BME280;3946;48.958;8.284;2023-12-07T11:28:59;100802.47;;;4.15;100.00
163;BME280;3946;48.958;8.284;2023-12-07T11:31:44;100794.31;;;4.31;100.00
163;BME280;3946;48.958;8.284;2023-12-07T11:34:34;100788.81;;;4.15;100.00
163;BME280;3946;48.958;8.284;2023-12-07T11:37:20;100777.31;;;4.00;100.00
163;BME280;3946;48.958;8.284;2023-12-07T11:40:07;100778.78;;;4.07;100.00
163;BME280;3946;48.958;8.284;2023-12-07T11:42:52;100767.69;;;4.07;100.00
163;BME280;3946;48.958;8.284;2023-12-07T11:45:41;100765.78;;;4.13;100.00
163;BME280;3946;48.958;8.284;2023-12-07T11:48:27;100770.25;;;4.35;100.00
163;BME280;3946;48.958;8.284;2023-12-07T11:51:12;100757.03;;;4.20;100.00
163;BME280;3946;48.958;8.284;2023-12-07T11:53:59;100751.88;;;4.22;100.00
163;BME280;3946;48.958;8.284;2023-12-07T11:56:45;100744.84;;;4.27;100.00
163;BME280;3946;48.958;8.284;2023-12-07T11:59:30;100744.72;;;4.32;100.00
163;BME280;3946;48.958;8.284;2023-12-07T12:02:16;100740.69;;;4.23;100.00
163;BME280;3946;48.958;8.284;2023-12-07T12:05:03;100734.72;;;4.22;100.00
163;BME280;3946;48.958;8.284;2023-12-07T12:07:48;100731.44;;;4.19;100.00
163;BME280;3946;48.958;8.284;2023-12-07T12:10:35;100723.88;;;4.14;100.00
163;BME280;3946;48.958;8.284;2023-12-07T12:13:28;100721.44;;;4.10;100.00
163;BME280;3946;48.958;8.284;2023-12-07T12:16:14;100711.59;;;4.24;100.00
163;BME280;3946;48.958;8.284;2023-12-07T12:18:59;100699.56;;;4.26;100.00
163;BME280;3946;48.958;8.284;2023-12-07T12:21:44;100695.28;;;4.53;100.00
163;BME280;3946;48.958;8.284;2023-12-07T12:24:31;100690.84;;;4.83;100.00
163;BME280;3946;48.958;8.284;2023-12-07T12:27:18;100691.34;;;4.92;100.00
163;BME280;3946;48.958;8.284;2023-12-07T12:30:04;100682.66;;;4.97;100.00
163;BME280;3946;48.958;8.284;2023-12-07T12:32:50;100668.13;;;4.96;100.00
163;BME280;3946;48.958;8.284;2023-12-07T12:35:35;100682.06;;;4.88;100.00
163;BME280;3946;48.958;8.284;2023-12-07T12:38:21;100676.16;;;4.86;100.00
163;BME280;3946;48.958;8.284;2023-12-07T12:41:06;100674.75;;;5.03;100.00
163;BME280;3946;48.958;8.284;2023-12-07T12:43:53;100673.72;;;5.07;100.00
163;BME280;3946;48.958;8.284;2023-12-07T12:46:39;100664.66;;;4.97;100.00
163;BME280;3946;48.958;8.284;2023-12-07T12:49:34;100674.50;;;5.09;100.00
163;BME280;3946;48.958;8.284;2023-12-07T12:52:20;100662.53;;;5.08;100.00
163;BME280;3946;48.958;8.284;2023-12-07T12:55:09;100664.97;;;5.12;100.00
163;BME280;3946;48.958;8.284;2023-12-07T12:57:55;100673.75;;;5.05;100.00
163;BME280;3946;48.958;8.284;2023-12-07T13:00:42;100682.72;;;5.18;100.00
163;BME280;3946;48.958;8.284;2023-12-07T13:03:28;100682.09;;;5.12;100.00
163;BME280;3946;48.958;8.284;2023-12-07T13:06:13;100687.19;;;5.13;100.00
163;BME280;3946;48.958;8.284;2023-12-07T13:08:59;100682.44;;;5.03;100.00
163;BME280;3946;48.958;8.284;2023-12-07T13:11:44;100676.09;;;4.88;100.00
163;BME280;3946;48.958;8.284;2023-12-07T13:14:31;100667.97;;;4.75;100.00
163;BME280;3946;48.958;8.284;2023-12-07T13:17:20;100669.94;;;4.69;100.00
163;BME280;3946;48.958;8.284;2023-12-07T13:20:06;100669.50;;;4.81;100.00
163;BME280;3946;48.958;8.284;2023-12-07T13:22:52;100675.97;;;4.68;100.00
163;BME280;3946;48.958;8.284;2023-12-07T13:25:39;100673.34;;;4.69;100.00
163;BME280;3946;48.958;8.284;2023-12-07T13:28:25;100654.53;;;4.69;100.00
163;BME280;3946;48.958;8.284;2023-12-07T13:31:10;100661.31;;;4.95;100.00
163;BME280;3946;48.958;8.284;2023-12-07T13:33:57;100666.44;;;4.95;100.00
163;BME280;3946;48.958;8.284;2023-12-07T13:36:42;100671.13;;;4.83;100.00
163;BME280;3946;48.958;8.284;2023-12-07T13:39:27;100665.16;;;4.83;100.00
163;BME280;3946;48.958;8.284;2023-12-07T13:42:14;100678.09;;;4.80;100.00
163;BME280;3946;48.958;8.284;2023-12-07T13:44:59;100672.72;;;4.63;100.00
163;BME280;3946;48.958;8.284;2023-12-07T13:47:48;100675.91;;;4.69;100.00
163;BME280;3946;48.958;8.284;2023-12-07T13:50:34;100669.72;;;4.50;100.00
163;BME280;3946;48.958;8.284;2023-12-07T13:53:20;100670.72;;;4.46;100.00
163;BME280;3946;48.958;8.284;2023-12-07T13:56:07;100674.41;;;4.11;100.00
163;BME280;3946;48.958;8.284;2023-12-07T13:58:54;100664.91;;;4.14;100.00
163;BME280;3946;48.958;8.284;2023-12-07T14:01:39;100665.22;;;3.77;100.00
163;BME280;3946;48.958;8.284;2023-12-07T14:04:24;100660.88;;;3.79;100.00
163;BME280;3946;48.958;8.284;2023-12-07T14:07:13;100670.22;;;3.54;100.00
163;BME280;3946;48.958;8.284;2023-12-07T14:09:59;100645.41;;;3.27;100.00
163;BME280;3946;48.958;8.284;2023-12-07T14:12:44;100648.19;;;3.19;100.00
163;BME280;3946;48.958;8.284;2023-12-07T14:15:30;100647.41;;;3.17;100.00
163;BME280;3946;48.958;8.284;2023-12-07T14:18:16;100657.16;;;3.04;100.00
163;BME280;3946;48.958;8.284;2023-12-07T14:21:02;100632.59;;;2.97;100.00
163;BME280;3946;48.958;8.284;2023-12-07T14:23:48;100627.41;;;3.00;100.00
163;BME280;3946;48.958;8.284;2023-12-07T14:26:34;100622.84;;;3.10;100.00
163;BME280;3946;48.958;8.284;2023-12-07T14:29:19;100624.16;;;2.94;100.00
163;BME280;3946;48.958;8.284;2023-12-07T14:32:05;100617.63;;;3.13;100.00
163;BME280;3946;48.958;8.284;2023-12-07T14:34:50;100603.06;;;3.15;100.00
163;BME280;3946;48.958;8.284;2023-12-07T14:37:36;100592.38;;;3.30;100.00
163;BME280;3946;48.958;8.284;2023-12-07T14:40:22;100559.38;;;3.21;100.00
163;BME280;3946;48.958;8.284;2023-12-07T14:43:08;100587.75;;;3.13;100.00
163;BME280;3946;48.958;8.284;2023-12-07T14:45:58;100597.91;;;3.16;100.00
163;BME280;3946;48.958;8.284;2023-12-07T14:48:43;100603.06;;;3.15;100.00
163;BME280;3946;48.958;8.284;2023-12-07T14:51:29;100594.56;;;3.14;100.00
163;BME280;3946;48.958;8.284;2023-12-07T14:54:14;100598.47;;;2.97;100.00
163;BME280;3946;48.958;8.284;2023-12-07T14:57:01;100603.81;;;2.91;100.00
163;BME280;3946;48.958;8.284;2023-12-07T14:59:49;100591.72;;;2.94;100.00